Flugplatz Dortmund

Bericht für EDLW

vom 22.03. um 21:20 UTC

Wind 8 kt aus 170°

Sichtweite 10 km oder mehr

keine Wolken

Temperatur 12.0°C

Taupunkt 4.0°C

Luftfeuchtigkeit 58%

Luftdruck 1026 hPa

EDLW 222120Z AUTO 17008KT 9999 // NCD 12/04 Q1026

Prognose für EDLW

vom 22.03. um 17:00 UTC

Zwischen 18:00 UTC und 18:00 UTC

Wind 7 kt aus 70°

Sichtweite 10 km oder mehr

keine signifikanten Wettererscheinungen

keine Wolken


Zwischen 18:00 und 21:00 UTC übergehend zu

Wind 5 kt aus 180°

Sichtweite 10 km oder mehr

keine signifikanten Wettererscheinungen

keine Wolken


Am 23.03. zwischen 05:00 und 08:00 UTC übergehend zu

Wind 5 kt aus 180°

Sichtweite 4000 m

feuchter Dunst

aufgebrochene Bewölkung in 1200 ft


Am 23.03. zwischen 06:00 und 09:00 UTC übergehend zu

Wind 5 kt aus 320°

Sichtweite 4000 m

feuchter Dunst

aufgebrochene Bewölkung in 1200 ft


Am 23.03. zwischen 09:00 und 12:00 UTC übergehend zu

Wind 5 kt aus 320°

Sichtweite 10 km oder mehr

feuchter Dunst

aufgebrochene Bewölkung in 2000 ft

TAF EDLW 221700Z 2218/2318 07007KT CAVOK BECMG 2218/2221 18005KT BECMG 2305/2308 4000 BR BKN012 BECMG 2306/2309 32005KT BECMG 2309/2312 9999 BKN020
Impressum